Time;durP1;ratioP1;P1;durP2;ratioP2;P2;SDS_P1;SDS_P2;PMS_P1;PMS_P2;Temp;Humidity;BMP_temperature;BMP_pressure;BME280_temperature;BME280_humidity;BME280_pressure;Samples;Min_cycle;Max_cycle;Signal;HPM_P1;HPM_P2
2023/12/14 00:01:53;;;;;;;0.80;0.80;;;;;;;6.93;100.00;95652.56;5074189;28;20213;-56
2023/12/14 00:04:20;;;;;;;1.10;1.10;;;;;;;6.96;100.00;95650.47;5074992;28;20297;-55
2023/12/14 00:06:48;;;;;;;1.13;1.10;;;;;;;6.96;100.00;95652.28;5074823;28;20213;-56
2023/12/14 00:09:14;;;;;;;1.87;1.10;;;;;;;6.95;100.00;95656.69;5073879;28;20700;-56
2023/12/14 00:11:41;;;;;;;1.37;1.13;;;;;;;6.99;100.00;95660.69;5074369;28;21333;-56
2023/12/14 00:14:07;;;;;;;1.30;1.30;;;;;;;6.96;100.00;95660.16;5074401;28;20199;-55
2023/12/14 00:16:34;;;;;;;1.70;1.60;;;;;;;7.00;100.00;95667.63;5086784;28;20244;-56
2023/12/14 00:19:01;;;;;;;1.63;1.50;;;;;;;7.08;100.00;95668.69;5085949;28;20226;-56
2023/12/14 00:21:27;;;;;;;1.20;1.20;;;;;;;7.04;100.00;95665.53;5074789;28;20245;-55
2023/12/14 00:23:55;;;;;;;1.40;1.30;;;;;;;7.08;100.00;95669.53;5073944;28;20199;-56
2023/12/14 00:26:22;;;;;;;1.63;1.53;;;;;;;7.12;100.00;95670.06;5074661;28;20195;-56
2023/12/14 00:28:48;;;;;;;1.77;1.67;;;;;;;7.12;100.00;95680.56;5073625;28;20209;-55
2023/12/14 00:31:15;;;;;;;1.87;1.77;;;;;;;7.16;100.00;95682.75;5073228;28;20209;-55
2023/12/14 00:33:41;;;;;;;7.57;6.77;;;;;;;7.14;100.00;95687.34;5072771;28;20529;-54
2023/12/14 00:36:08;;;;;;;2.10;2.00;;;;;;;7.07;100.00;95693.31;5073307;28;20646;-56
2023/12/14 00:38:35;;;;;;;1.73;1.63;;;;;;;7.13;100.00;95695.34;5072810;28;20579;-55
2023/12/14 00:41:03;;;;;;;2.17;2.07;;;;;;;7.09;100.00;95694.81;5073479;28;20514;-55
2023/12/14 00:43:30;;;;;;;1.50;1.50;;;;;;;7.12;100.00;95701.59;5072972;28;20209;-55
2023/12/14 00:45:56;;;;;;;2.13;1.60;;;;;;;7.14;100.00;95715.41;5073281;28;20206;-55
2023/12/14 00:48:23;;;;;;;1.30;1.30;;;;;;;7.12;100.00;95712.13;5074503;28;20194;-56
2023/12/14 00:50:49;;;;;;;1.63;1.53;;;;;;;7.13;100.00;95713.75;5074159;28;20217;-56
2023/12/14 00:53:16;;;;;;;1.43;1.43;;;;;;;7.15;100.00;95719.72;5073248;28;20194;-55
2023/12/14 00:55:41;;;;;;;1.70;1.60;;;;;;;7.12;100.00;95715.56;5073175;28;20217;-56
2023/12/14 00:58:09;;;;;;;2.50;1.77;;;;;;;7.15;100.00;95717.91;5073148;28;20214;-55
2023/12/14 01:00:36;;;;;;;1.60;1.60;;;;;;;7.10;100.00;95729.81;5073733;28;20205;-55
2023/12/14 01:03:03;;;;;;;1.73;1.63;;;;;;;7.15;100.00;95735.50;5072333;28;20330;-54
2023/12/14 01:05:29;;;;;;;1.63;1.63;;;;;;;7.14;100.00;95737.28;5072868;28;20229;-54
2023/12/14 01:07:56;;;;;;;1.60;1.50;;;;;;;7.11;100.00;95748.09;5072584;28;20211;-56
2023/12/14 01:10:22;;;;;;;1.80;1.70;;;;;;;7.18;100.00;95743.09;5073395;28;20584;-56
2023/12/14 01:12:49;;;;;;;2.07;1.70;;;;;;;7.17;100.00;95757.19;5072682;28;20293;-55
2023/12/14 01:15:17;;;;;;;2.07;1.83;;;;;;;7.20;100.00;95751.63;5073662;28;20553;-56
2023/12/14 01:17:44;;;;;;;1.77;1.67;;;;;;;7.21;100.00;95753.31;5074547;28;20284;-57
2023/12/14 01:20:11;;;;;;;1.93;1.83;;;;;;;7.22;100.00;95768.13;5073043;28;20560;-57
2023/12/14 01:22:38;;;;;;;1.60;1.50;;;;;;;7.17;100.00;95759.81;5076390;28;20209;-56
2023/12/14 01:25:05;;;;;;;1.60;1.50;;;;;;;7.30;100.00;95762.94;5078322;28;20198;-56
2023/12/14 01:27:32;;;;;;;1.40;1.37;;;;;;;7.21;100.00;95769.91;5076175;28;20275;-57
2023/12/14 01:29:59;;;;;;;1.90;1.50;;;;;;;7.13;100.00;95771.59;5075104;28;20283;-57
2023/12/14 01:32:26;;;;;;;1.40;1.30;;;;;;;7.18;100.00;95769.38;5073893;28;21302;-55
2023/12/14 01:34:53;;;;;;;1.57;1.47;;;;;;;7.23;100.00;95773.22;5073590;28;20555;-57
2023/12/14 01:37:20;;;;;;;1.20;1.20;;;;;;;7.17;100.00;95776.44;5072247;28;20937;-56
2023/12/14 01:39:46;;;;;;;1.37;1.37;;;;;;;7.20;100.00;95777.94;5072038;28;20194;-57
2023/12/14 01:42:13;;;;;;;1.10;1.10;;;;;;;7.13;100.00;95782.09;5073182;28;20198;-57
2023/12/14 01:44:40;;;;;;;1.10;1.10;;;;;;;7.13;100.00;95787.38;5072594;28;20199;-56
2023/12/14 01:47:08;;;;;;;1.00;1.00;;;;;;;7.10;100.00;95785.03;5072838;28;20198;-56
2023/12/14 01:49:36;;;;;;;1.03;1.03;;;;;;;7.11;100.00;95786.69;5072311;28;20203;-57
2023/12/14 01:52:02;;;;;;;1.03;1.03;;;;;;;7.13;100.00;95792.63;5072041;28;20205;-57
2023/12/14 01:54:29;;;;;;;1.20;1.20;;;;;;;7.10;100.00;95792.91;5072173;28;20211;-55
2023/12/14 01:56:55;;;;;;;1.30;1.13;;;;;;;7.19;100.00;95792.88;5072426;28;20222;-56
2023/12/14 01:59:22;;;;;;;1.07;1.07;;;;;;;7.14;100.00;95800.38;5072766;28;20195;-55
2023/12/14 02:01:55;;;;;;;1.57;1.17;;;;;;;7.16;100.00;95803.69;5072259;28;20203;-58
2023/12/14 02:04:23;;;;;;;1.30;1.30;;;;;;;7.13;100.00;95809.22;5072355;28;20234;-56
2023/12/14 02:06:51;;;;;;;2.07;1.40;;;;;;;7.14;100.00;95810.06;5071902;28;20202;-56
2023/12/14 02:09:17;;;;;;;1.07;1.07;;;;;;;7.14;100.00;95825.84;5071662;28;20369;-57
2023/12/14 02:11:44;;;;;;;1.20;1.20;;;;;;;7.12;100.00;95828.59;5071465;28;20202;-55
2023/12/14 02:14:11;;;;;;;1.37;1.37;;;;;;;7.01;100.00;95824.31;5069477;28;20307;-57
2023/12/14 02:16:38;;;;;;;1.27;1.27;;;;;;;7.06;100.00;95828.34;5071908;28;20301;-56
2023/12/14 02:19:05;;;;;;;1.60;1.50;;;;;;;7.09;100.00;95828.06;5071752;28;20203;-57
2023/12/14 02:21:31;;;;;;;1.70;1.37;;;;;;;7.08;100.00;95839.56;5071115;28;20558;-57
2023/12/14 02:24:00;;;;;;;1.47;1.40;;;;;;;7.04;100.00;95838.19;5071220;28;20287;-56
2023/12/14 02:26:26;;;;;;;1.30;1.30;;;;;;;7.11;100.00;95839.28;5071812;28;20194;-56
2023/12/14 02:28:53;;;;;;;1.50;1.40;;;;;;;7.09;100.00;95843.81;5073548;28;20195;-59
2023/12/14 02:31:20;;;;;;;1.60;1.50;;;;;;;7.11;100.00;95850.63;5085007;28;20275;-56
2023/12/14 02:33:47;;;;;;;1.13;1.13;;;;;;;7.09;100.00;95855.16;5089419;28;20202;-57
2023/12/14 02:36:13;;;;;;;1.33;1.30;;;;;;;7.05;100.00;95859.03;5080088;28;20249;-54
2023/12/14 02:38:40;;;;;;;1.67;1.40;;;;;;;7.00;100.00;95862.13;5071678;28;20241;-56
2023/12/14 02:41:08;;;;;;;1.37;1.37;;;;;;;7.07;100.00;95861.53;5071664;28;20206;-54
2023/12/14 02:43:34;;;;;;;1.03;1.03;;;;;;;7.01;100.00;95858.50;5071234;28;20211;-56
2023/12/14 02:46:02;;;;;;;1.60;1.50;;;;;;;6.95;100.00;95866.94;5070889;28;20202;-55
2023/12/14 02:48:30;;;;;;;1.23;1.20;;;;;;;6.96;100.00;95866.00;5071094;28;20199;-55
2023/12/14 02:50:57;;;;;;;1.30;1.30;;;;;;;6.92;100.00;95864.59;5071228;28;20206;-54
2023/12/14 02:53:23;;;;;;;1.20;1.20;;;;;;;6.89;100.00;95864.88;5071140;28;20226;-54
2023/12/14 02:55:50;;;;;;;1.40;1.27;;;;;;;6.94;100.00;95873.16;5071037;28;20221;-55
2023/12/14 02:58:18;;;;;;;1.20;1.10;;;;;;;6.88;100.00;95875.53;5070538;28;20232;-54
2023/12/14 03:00:46;;;;;;;1.20;1.20;;;;;;;6.93;100.00;95871.53;5071322;28;20213;-55
2023/12/14 03:03:13;;;;;;;1.27;1.27;;;;;;;6.89;100.00;95878.03;5070895;28;20325;-56
2023/12/14 03:05:39;;;;;;;1.20;1.10;;;;;;;6.90;100.00;95876.25;5071486;28;20199;-56
2023/12/14 03:08:06;;;;;;;1.30;1.30;;;;;;;6.90;100.00;95886.75;5073042;28;20639;-56
2023/12/14 03:10:33;;;;;;;1.37;1.03;;;;;;;6.90;100.00;95886.75;5072215;28;20220;-56
2023/12/14 03:12:59;;;;;;;2.60;1.03;;;;;;;6.91;100.00;95894.47;5070907;28;20198;-56
2023/12/14 03:15:27;;;;;;;0.90;0.90;;;;;;;6.93;100.00;95892.56;5070892;28;20221;-54
2023/12/14 03:17:53;;;;;;;1.00;1.00;;;;;;;6.99;100.00;95901.66;5070895;28;20229;-56
2023/12/14 03:20:20;;;;;;;0.80;0.80;;;;;;;6.94;100.00;95899.44;5075489;28;20210;-55
2023/12/14 03:22:47;;;;;;;1.00;0.97;;;;;;;6.99;100.00;95902.50;5076990;28;20207;-56
2023/12/14 03:25:14;;;;;;;0.80;0.80;;;;;;;7.01;100.00;95911.06;5077840;28;20206;-55
2023/12/14 03:27:41;;;;;;;1.03;1.00;;;;;;;7.01;100.00;95905.81;5076863;28;20198;-56
2023/12/14 03:30:09;;;;;;;0.80;0.80;;;;;;;7.00;100.00;95911.22;5077875;28;20198;-56
2023/12/14 03:32:38;;;;;;;1.30;1.00;;;;;;;6.99;100.00;95912.19;5077774;28;20639;-56
2023/12/14 03:35:08;;;;;;;1.47;1.20;;;;;;;7.01;100.00;95916.31;5079725;28;20205;-56
2023/12/14 03:37:34;;;;;;;0.87;0.83;;;;;;;7.07;100.00;95919.38;5078473;28;20321;-55
2023/12/14 03:40:01;;;;;;;1.00;1.00;;;;;;;6.97;100.00;95909.72;5077739;28;20285;-55
2023/12/14 03:42:28;;;;;;;1.07;1.00;;;;;;;7.04;100.00;95920.50;5077594;28;20776;-54
2023/12/14 03:44:54;;;;;;;0.90;0.90;;;;;;;7.07;100.00;95916.75;5077119;28;20304;-54
2023/12/14 03:47:21;;;;;;;1.00;1.00;;;;;;;7.01;100.00;95924.22;5076796;28;20206;-56
2023/12/14 03:49:50;;;;;;;1.00;1.00;;;;;;;7.01;100.00;95926.03;5076953;28;20669;-55
2023/12/14 03:52:16;;;;;;;0.87;0.87;;;;;;;6.96;100.00;95936.97;5077633;28;20206;-56
2023/12/14 03:54:43;;;;;;;0.70;0.70;;;;;;;6.98;100.00;95942.06;5076942;28;20289;-56
2023/12/14 03:57:09;;;;;;;0.90;0.90;;;;;;;7.00;100.00;95948.84;5077030;28;20209;-56
2023/12/14 03:59:40;;;;;;;2.03;1.13;;;;;;;7.05;100.00;95952.88;5077277;28;20216;-56
2023/12/14 04:02:06;;;;;;;1.17;1.13;;;;;;;6.97;100.00;95954.41;5076941;28;20762;-55
2023/12/14 04:04:33;;;;;;;1.27;1.00;;;;;;;6.98;100.00;95952.56;5077283;28;20191;-55
2023/12/14 04:07:01;;;;;;;0.90;0.90;;;;;;;7.03;100.00;95955.63;5077213;28;20631;-55
2023/12/14 04:09:27;;;;;;;1.90;1.07;;;;;;;7.05;100.00;95966.03;5077663;28;20206;-56
2023/12/14 04:11:55;;;;;;;1.53;1.00;;;;;;;7.04;100.00;95964.34;5077499;28;20272;-56
2023/12/14 04:14:22;;;;;;;1.17;1.17;;;;;;;7.05;100.00;95973.91;5076871;28;20209;-54
2023/12/14 04:16:48;;;;;;;1.27;1.27;;;;;;;7.05;100.00;95973.91;5077272;28;20194;-54
2023/12/14 04:19:15;;;;;;;1.40;1.37;;;;;;;7.10;100.00;95976.94;5076716;28;20226;-54
2023/12/14 04:21:41;;;;;;;2.67;1.50;;;;;;;7.05;100.00;95981.78;5077422;28;20206;-54
2023/12/14 04:24:12;;;;;;;1.57;1.47;;;;;;;7.03;100.00;95987.16;5076986;28;20301;-57
2023/12/14 04:26:39;;;;;;;1.43;1.37;;;;;;;7.07;100.00;95988.56;5076876;28;20221;-56
2023/12/14 04:29:06;;;;;;;1.60;1.60;;;;;;;7.06;100.00;95993.94;5076707;28;20212;-56
2023/12/14 04:31:33;;;;;;;1.90;1.80;;;;;;;7.01;100.00;95997.81;5074212;28;20198;-55
2023/12/14 04:33:59;;;;;;;1.80;1.70;;;;;;;7.03;100.00;96002.09;5074037;28;20301;-55
2023/12/14 04:36:26;;;;;;;1.83;1.73;;;;;;;6.97;100.00;96006.97;5073908;28;20384;-54
2023/12/14 04:38:52;;;;;;;1.40;1.40;;;;;;;6.99;100.00;96015.53;5073975;28;20226;-55
2023/12/14 04:41:20;;;;;;;1.50;1.50;;;;;;;7.01;100.00;96026.72;5073997;28;20283;-55
2023/12/14 04:43:47;;;;;;;2.10;2.00;;;;;;;7.08;100.00;96021.78;5074486;28;20203;-56
2023/12/14 04:46:14;;;;;;;2.10;2.00;;;;;;;7.05;100.00;96021.22;5085204;28;20222;-59
2023/12/14 04:48:40;;;;;;;2.10;2.00;;;;;;;7.08;100.00;96028.84;5089319;28;20207;-56
2023/12/14 04:51:12;;;;;;;2.43;2.13;;;;;;;7.10;100.00;96040.03;5088767;28;20293;-56
2023/12/14 04:53:39;;;;;;;2.03;1.93;;;;;;;7.09;100.00;96041.81;5074322;28;20199;-55
2023/12/14 04:56:07;;;;;;;2.93;2.73;;;;;;;7.13;100.00;96047.63;5074204;28;20547;-56
2023/12/14 04:58:34;;;;;;;3.10;2.90;;;;;;;7.13;100.00;96055.53;5073461;28;20237;-54
2023/12/14 05:01:01;;;;;;;2.70;2.50;;;;;;;7.15;100.00;96050.97;5073747;28;20234;-55
2023/12/14 05:03:27;;;;;;;2.80;2.60;;;;;;;7.20;100.00;96057.47;5073491;28;20328;-56
2023/12/14 05:05:54;;;;;;;2.90;2.73;;;;;;;7.17;100.00;96063.00;5074402;28;20205;-55
2023/12/14 05:08:21;;;;;;;2.80;2.70;;;;;;;7.18;100.00;96069.09;5074974;28;20273;-55
2023/12/14 05:10:47;;;;;;;3.00;2.80;;;;;;;7.18;100.00;96069.94;5073759;28;20254;-56
2023/12/14 05:13:14;;;;;;;2.93;2.80;;;;;;;7.20;100.00;96072.41;5074206;28;20198;-55
2023/12/14 05:15:42;;;;;;;3.30;3.10;;;;;;;7.28;100.00;96077.84;5073517;28;20358;-55
2023/12/14 05:18:09;;;;;;;3.10;2.90;;;;;;;7.24;100.00;96084.34;5074160;28;20245;-53
2023/12/14 05:20:36;;;;;;;3.10;2.90;;;;;;;7.27;100.00;96084.88;5074978;28;20275;-56
2023/12/14 05:23:02;;;;;;;3.33;3.13;;;;;;;7.21;100.00;96089.88;5073848;28;20691;-54
2023/12/14 05:25:29;;;;;;;3.50;3.30;;;;;;;7.22;100.00;96091.53;5073385;28;20210;-55
2023/12/14 05:27:55;;;;;;;2.90;2.70;;;;;;;7.23;100.00;96095.81;5072570;28;20209;-55
2023/12/14 05:30:22;;;;;;;2.83;2.73;;;;;;;7.29;100.00;96097.91;5072909;28;20198;-54
2023/12/14 05:32:50;;;;;;;2.90;2.80;;;;;;;7.27;100.00;96105.09;5072896;28;20203;-56
2023/12/14 05:35:17;;;;;;;3.00;2.80;;;;;;;7.18;100.00;96098.88;5072795;28;20285;-59
2023/12/14 05:37:43;;;;;;;3.30;3.10;;;;;;;7.16;100.00;96113.94;5073251;28;20297;-57
2023/12/14 05:40:11;;;;;;;3.07;2.87;;;;;;;7.15;100.00;96114.09;5073415;28;20208;-56
2023/12/14 05:42:38;;;;;;;3.20;3.00;;;;;;;7.16;100.00;96123.63;5072932;28;20235;-54
2023/12/14 05:45:05;;;;;;;3.60;3.30;;;;;;;7.14;100.00;96126.41;5082887;28;20206;-54
2023/12/14 05:47:34;;;;;;;3.20;3.00;;;;;;;7.16;100.00;96131.50;5082025;28;20268;-55
2023/12/14 05:50:03;;;;;;;3.00;2.90;;;;;;;7.14;100.00;96131.66;5077383;28;20195;-54
2023/12/14 05:52:30;;;;;;;3.30;3.10;;;;;;;7.21;100.00;96135.41;5072341;28;20205;-57
2023/12/14 05:54:56;;;;;;;3.27;3.07;;;;;;;7.15;100.00;96137.75;5072099;28;20198;-56
2023/12/14 05:57:24;;;;;;;3.07;2.87;;;;;;;7.19;100.00;96144.41;5072091;28;20544;-55
2023/12/14 05:59:53;;;;;;;3.30;3.10;;;;;;;7.20;100.00;96146.88;5072836;28;20579;-55
2023/12/14 06:02:19;;;;;;;3.10;2.90;;;;;;;7.22;100.00;96152.84;5072850;28;20242;-55
2023/12/14 06:04:46;;;;;;;2.87;2.70;;;;;;;7.16;100.00;96149.91;5072384;28;20202;-56
2023/12/14 06:07:16;;;;;;;3.07;2.87;;;;;;;7.11;100.00;96158.22;5072654;28;20220;-56
2023/12/14 06:09:43;;;;;;;3.03;2.87;;;;;;;7.12;100.00;96159.06;5071968;28;20198;-56
2023/12/14 06:12:10;;;;;;;3.13;2.93;;;;;;;7.11;100.00;96173.16;5071946;28;20333;-54
2023/12/14 06:14:36;;;;;;;3.10;2.90;;;;;;;7.12;100.00;96180.09;5071061;28;20553;-55
2023/12/14 06:17:03;;;;;;;2.87;2.67;;;;;;;7.10;100.00;96174.13;5071932;28;21380;-54
2023/12/14 06:19:32;;;;;;;3.17;2.97;;;;;;;7.09;100.00;96180.31;5071424;28;20272;-55
2023/12/14 06:22:00;;;;;;;2.93;2.73;;;;;;;7.09;100.00;96190.84;5071874;28;20259;-54
2023/12/14 06:24:28;;;;;;;3.00;2.90;;;;;;;7.06;100.00;96199.00;5071919;28;20204;-54
2023/12/14 06:26:54;;;;;;;2.93;2.77;;;;;;;7.10;100.00;96206.50;5071733;28;20221;-54
2023/12/14 06:29:21;;;;;;;2.87;2.70;;;;;;;7.11;100.00;96204.72;5071415;28;20217;-54
2023/12/14 06:31:48;;;;;;;2.97;2.77;;;;;;;7.13;100.00;96213.28;5071706;28;20198;-53
2023/12/14 06:34:14;;;;;;;2.93;2.80;;;;;;;7.14;100.00;96220.22;5071286;28;20198;-60
2023/12/14 06:36:43;;;;;;;2.90;2.80;;;;;;;7.20;100.00;96219.69;5071649;28;20213;-53
2023/12/14 06:39:10;;;;;;;3.10;2.90;;;;;;;7.21;100.00;96222.19;5071084;28;20700;-52
2023/12/14 06:41:38;;;;;;;2.90;2.70;;;;;;;7.27;100.00;96231.31;5071386;28;20194;-54
2023/12/14 06:44:05;;;;;;;2.83;2.73;;;;;;;7.30;100.00;96236.31;5071099;28;20209;-54
2023/12/14 06:46:32;;;;;;;5.40;3.33;;;;;;;7.31;100.00;96238.81;5071338;28;20706;-52
2023/12/14 06:48:58;;;;;;;4.40;4.10;;;;;;;7.49;100.00;96252.19;5071752;28;20217;-53
2023/12/14 06:51:25;;;;;;;3.33;3.10;;;;;;;7.50;100.00;96249.44;5072779;28;20198;-54
2023/12/14 06:53:52;;;;;;;2.70;2.60;;;;;;;7.50;100.00;96251.22;5072692;28;20639;-52
2023/12/14 06:56:19;;;;;;;2.80;2.60;;;;;;;7.53;100.00;96266.72;5071657;28;20299;-55
2023/12/14 06:58:49;;;;;;;3.10;2.90;;;;;;;7.59;100.00;96270.63;5071615;28;20314;-53
2023/12/14 07:01:17;;;;;;;2.60;2.50;;;;;;;7.64;100.00;96274.53;5073968;28;20264;-54
2023/12/14 07:03:45;;;;;;;2.77;2.57;;;;;;;7.64;100.00;96277.16;5096995;28;20238;-55
2023/12/14 07:06:13;;;;;;;2.40;2.30;;;;;;;7.59;100.00;96278.50;5095799;28;20289;-55
2023/12/14 07:08:40;;;;;;;3.00;2.50;;;;;;;7.69;100.00;96290.72;5088154;28;20205;-52
2023/12/14 07:11:06;;;;;;;2.50;2.17;;;;;;;7.63;100.00;96291.28;5072796;28;20292;-54
2023/12/14 07:13:33;;;;;;;2.40;2.30;;;;;;;7.61;100.00;96287.97;5071193;28;20550;-53
2023/12/14 07:16:03;;;;;;;2.03;1.93;;;;;;;7.58;100.00;96293.47;5071325;28;20688;-52
2023/12/14 07:18:31;;;;;;;2.40;2.30;;;;;;;7.56;100.00;96290.16;5070342;28;20203;-53
2023/12/14 07:20:58;;;;;;;2.90;2.70;;;;;;;7.54;100.00;96293.88;5071225;28;20206;-52
2023/12/14 07:23:25;;;;;;;2.23;2.13;;;;;;;7.56;100.00;96300.66;5071202;28;20212;-55
2023/12/14 07:25:51;;;;;;;2.60;2.40;;;;;;;7.53;100.00;96311.47;5071334;28;20210;-52
2023/12/14 07:28:18;;;;;;;2.60;2.50;;;;;;;7.55;100.00;96314.78;5070934;28;20202;-56
2023/12/14 07:30:46;;;;;;;2.47;2.33;;;;;;;7.46;100.00;96315.59;5071296;28;20212;-57
2023/12/14 07:33:14;;;;;;;2.33;2.20;;;;;;;7.42;100.00;96319.44;5071159;28;20202;-53
2023/12/14 07:35:40;;;;;;;2.13;2.03;;;;;;;7.42;100.00;96332.59;5071033;28;20301;-54
2023/12/14 07:38:07;;;;;;;2.27;2.13;;;;;;;7.34;100.00;96327.16;5071059;28;20198;-54
2023/12/14 07:40:34;;;;;;;2.50;2.30;;;;;;;7.29;100.00;96334.63;5070725;28;20227;-54
2023/12/14 07:43:00;;;;;;;2.23;2.13;;;;;;;7.23;100.00;96328.06;5070224;28;20518;-54
2023/12/14 07:45:27;;;;;;;2.20;2.00;;;;;;;7.24;100.00;96328.91;5070926;28;20198;-55
2023/12/14 07:47:53;;;;;;;2.20;2.07;;;;;;;7.28;100.00;96339.03;5070727;28;20319;-53
2023/12/14 07:50:21;;;;;;;2.97;1.83;;;;;;;7.29;100.00;96347.75;5070686;28;20217;-53
2023/12/14 07:52:49;;;;;;;1.93;1.83;;;;;;;7.29;100.00;96355.66;5070816;28;20198;-54
2023/12/14 07:55:15;;;;;;;1.70;1.60;;;;;;;7.25;100.00;96354.25;5070734;28;20202;-53
2023/12/14 07:57:42;;;;;;;1.47;1.47;;;;;;;7.30;100.00;96362.56;5070289;28;20222;-53
2023/12/14 08:00:10;;;;;;;1.50;1.50;;;;;;;7.28;100.00;96361.88;5070188;28;20222;-54
2023/12/14 08:02:37;;;;;;;1.73;1.40;;;;;;;7.38;100.00;96366.22;5070122;28;20318;-55
2023/12/14 08:05:03;;;;;;;1.57;1.57;;;;;;;7.32;100.00;96376.44;5070496;28;20542;-53
2023/12/14 08:07:31;;;;;;;1.83;1.73;;;;;;;7.31;100.00;96382.66;5074511;28;20212;-54
2023/12/14 08:09:58;;;;;;;1.57;1.47;;;;;;;7.40;100.00;96379.25;5074423;28;20290;-55
2023/12/14 08:12:25;;;;;;;1.57;1.50;;;;;;;7.33;100.00;96388.63;5074543;28;20230;-55
2023/12/14 08:14:52;;;;;;;1.60;1.60;;;;;;;7.35;100.00;96394.59;5072814;28;20210;-54
2023/12/14 08:17:19;;;;;;;1.70;1.40;;;;;;;7.35;100.00;96387.53;5074710;28;20291;-53
2023/12/14 08:19:45;;;;;;;1.60;1.50;;;;;;;7.45;100.00;96398.09;5074251;28;20341;-54
2023/12/14 08:22:12;;;;;;;1.60;1.50;;;;;;;7.31;100.00;96401.06;5074049;28;20210;-54
2023/12/14 08:24:40;;;;;;;1.57;1.47;;;;;;;7.36;100.00;96409.41;5074039;28;20268;-55
2023/12/14 08:27:07;;;;;;;1.53;1.53;;;;;;;7.30;100.00;96423.06;5074043;28;20217;-56
2023/12/14 08:29:33;;;;;;;1.27;1.27;;;;;;;7.41;100.00;96429.09;5073716;28;20240;-55
2023/12/14 08:32:00;;;;;;;1.30;1.30;;;;;;;7.40;100.00;96426.59;5073955;28;20202;-55
2023/12/14 08:34:27;;;;;;;1.23;1.23;;;;;;;7.34;100.00;96442.88;5073921;28;20198;-55
2023/12/14 08:36:54;;;;;;;1.50;1.40;;;;;;;7.30;100.00;96447.56;5073913;28;20199;-53
2023/12/14 08:39:21;;;;;;;1.20;1.20;;;;;;;7.32;100.00;96452.72;5073439;28;20682;-54
2023/12/14 08:41:49;;;;;;;1.60;1.50;;;;;;;7.28;100.00;96456.56;5073599;28;20201;-53
2023/12/14 08:44:15;;;;;;;1.93;1.37;;;;;;;7.30;100.00;96458.09;5073284;28;20220;-54
2023/12/14 08:46:42;;;;;;;1.37;1.33;;;;;;;7.38;100.00;96460.91;5073674;28;20210;-53
2023/12/14 08:49:10;;;;;;;2.60;1.30;;;;;;;7.44;100.00;96456.94;5073771;28;20294;-55
2023/12/14 08:51:38;;;;;;;1.43;1.40;;;;;;;7.39;100.00;96469.66;5073525;28;20513;-55
2023/12/14 08:54:04;;;;;;;1.50;1.40;;;;;;;7.45;100.00;96471.75;5073349;28;20203;-53
2023/12/14 08:56:31;;;;;;;1.73;1.63;;;;;;;7.41;100.00;96467.72;5073292;28;20202;-53
2023/12/14 08:58:59;;;;;;;1.10;1.10;;;;;;;7.47;100.00;96475.13;5073147;28;20268;-54
2023/12/14 09:01:25;;;;;;;1.43;1.33;;;;;;;7.48;100.00;96484.66;5073010;28;20640;-55
2023/12/14 09:03:52;;;;;;;1.40;1.30;;;;;;;7.59;100.00;96489.84;5072802;28;20240;-54
2023/12/14 09:06:19;;;;;;;1.37;1.27;;;;;;;7.61;100.00;96493.22;5073404;28;20221;-55
2023/12/14 09:08:46;;;;;;;1.50;1.40;;;;;;;7.64;100.00;96505.28;5073908;28;20233;-55
2023/12/14 09:11:12;;;;;;;1.20;1.20;;;;;;;7.59;100.00;96505.66;5073061;28;20505;-54
2023/12/14 09:13:42;;;;;;;0.90;0.90;;;;;;;7.59;100.00;96508.28;5074198;28;20222;-55
2023/12/14 09:16:10;;;;;;;1.30;1.30;;;;;;;7.64;100.00;96514.00;5074306;28;20213;-55
2023/12/14 09:18:36;;;;;;;1.23;1.20;;;;;;;7.76;100.00;96518.22;5073593;28;20198;-56
2023/12/14 09:21:04;;;;;;;2.43;1.33;;;;;;;7.72;100.00;96532.59;5073407;28;20832;-55
2023/12/14 09:23:31;;;;;;;1.43;1.37;;;;;;;7.70;100.00;96534.53;5073325;28;20214;-54
2023/12/14 09:25:59;;;;;;;1.50;1.37;;;;;;;7.65;100.00;96539.34;5073816;28;20202;-55
2023/12/14 09:28:26;;;;;;;1.33;1.23;;;;;;;7.65;100.00;96549.88;5073855;28;20203;-55
2023/12/14 09:30:53;;;;;;;1.40;1.30;;;;;;;7.71;100.00;96556.44;5073952;28;20337;-55
2023/12/14 09:33:21;;;;;;;1.50;1.40;;;;;;;7.74;100.00;96564.06;5078476;28;20202;-60
2023/12/14 09:35:48;;;;;;;1.00;1.00;;;;;;;7.68;100.00;96562.81;5087329;28;20186;-55
2023/12/14 09:38:17;;;;;;;1.80;1.70;;;;;;;7.70;100.00;96566.13;5092276;28;20203;-55
2023/12/14 09:40:44;;;;;;;1.37;1.27;;;;;;;7.67;100.00;96576.91;5090353;28;20236;-55
2023/12/14 09:43:11;;;;;;;1.40;1.30;;;;;;;7.66;100.00;96580.50;5084668;28;20218;-53
2023/12/14 09:45:41;;;;;;;1.80;1.23;;;;;;;7.68;100.00;96583.84;5072428;28;20217;-55
2023/12/14 09:48:11;;;;;;;3.67;1.30;;;;;;;7.73;100.00;96576.41;5072246;28;20576;-55
2023/12/14 09:50:42;;;;;;;0.93;0.93;;;;;;;7.72;100.00;96585.25;5073754;28;20217;-55
2023/12/14 09:53:09;;;;;;;1.73;1.20;;;;;;;7.73;100.00;96575.56;5072627;28;20217;-56
2023/12/14 09:55:38;;;;;;;1.00;1.00;;;;;;;7.87;100.00;96583.97;5072649;28;20225;-56
2023/12/14 09:58:06;;;;;;;1.27;1.20;;;;;;;7.86;100.00;96581.50;5072500;28;20214;-55
2023/12/14 10:00:34;;;;;;;1.20;1.20;;;;;;;7.87;100.00;96589.25;5072557;28;20222;-55
2023/12/14 10:03:18;;;;;;;1.80;1.30;;;;;;;7.89;100.00;96591.75;5072043;28;20238;-56
2023/12/14 10:05:48;;;;;;;1.10;1.10;;;;;;;7.98;100.00;96590.97;5073225;28;20256;-56
2023/12/14 10:08:16;;;;;;;1.30;1.20;;;;;;;7.96;100.00;96588.50;5072860;28;20264;-53
2023/12/14 10:10:43;;;;;;;1.73;1.63;;;;;;;8.00;100.00;96592.53;5074981;28;20194;-53
2023/12/14 10:13:10;;;;;;;1.90;1.70;;;;;;;8.01;100.00;96598.63;5074171;28;20210;-54
2023/12/14 10:15:43;;;;;;;1.10;1.10;;;;;;;8.00;100.00;96602.25;5074138;28;20301;-54
2023/12/14 10:18:09;;;;;;;1.60;1.50;;;;;;;7.99;100.00;96598.75;5074032;28;20281;-54
2023/12/14 10:20:37;;;;;;;1.60;1.50;;;;;;;8.04;100.00;96600.19;5072613;28;20229;-54
2023/12/14 10:23:06;;;;;;;1.50;1.40;;;;;;;8.00;100.00;96608.34;5072181;28;20605;-52
2023/12/14 10:25:32;;;;;;;1.50;1.40;;;;;;;8.06;100.00;96608.78;5072105;28;20226;-53
2023/12/14 10:28:02;;;;;;;1.37;1.27;;;;;;;7.98;100.00;96612.88;5071921;28;20234;-55
2023/12/14 10:30:29;;;;;;;1.57;1.43;;;;;;;8.02;100.00;96610.84;5070870;28;20199;-53
2023/12/14 10:32:55;;;;;;;1.67;1.57;;;;;;;8.02;100.00;96609.03;5071809;28;20594;-54
2023/12/14 10:35:22;;;;;;;1.53;1.43;;;;;;;8.03;100.00;96607.25;5071795;28;20194;-54
2023/12/14 10:37:51;;;;;;;1.93;1.70;;;;;;;8.02;100.00;96603.78;5073252;28;20198;-55
2023/12/14 10:40:19;;;;;;;1.33;1.23;;;;;;;8.04;100.00;96614.19;5071850;28;20222;-55
2023/12/14 10:42:46;;;;;;;1.80;1.63;;;;;;;8.07;100.00;96615.72;5071313;28;20293;-55
2023/12/14 10:45:16;;;;;;;1.80;1.70;;;;;;;8.08;100.00;96622.66;5071335;28;20299;-52
2023/12/14 10:47:44;;;;;;;1.70;1.47;;;;;;;8.07;100.00;96619.19;5071559;28;20202;-53
2023/12/14 10:50:12;;;;;;;1.63;1.60;;;;;;;8.05;100.00;96625.53;5071052;28;20631;-53
2023/12/14 10:52:39;;;;;;;2.20;2.10;;;;;;;8.04;100.00;96621.25;5071068;28;20322;-54
2023/12/14 10:55:09;;;;;;;1.80;1.70;;;;;;;8.03;100.00;96630.94;5072109;28;20199;-53
2023/12/14 10:57:39;;;;;;;2.63;2.43;;;;;;;8.04;100.00;96637.88;5071287;28;20203;-55
2023/12/14 11:00:08;;;;;;;2.27;2.07;;;;;;;8.13;100.00;96637.09;5070265;28;20611;-55
2023/12/14 11:02:40;;;;;;;2.27;2.07;;;;;;;8.17;100.00;96642.97;5071842;28;20284;-54
2023/12/14 11:05:09;;;;;;;1.80;1.70;;;;;;;8.06;100.00;96654.38;5072277;28;20702;-55
2023/12/14 11:07:50;;;;;;;2.00;1.90;;;;;;;8.06;100.00;96661.44;5070345;28;20202;-55
2023/12/14 11:10:23;;;;;;;2.27;2.00;;;;;;;7.95;100.00;96660.53;5071216;28;20627;-55
2023/12/14 11:12:57;;;;;;;3.17;1.90;;;;;;;8.00;100.00;96662.81;5070965;28;20207;-54
2023/12/14 11:15:23;;;;;;;2.70;1.77;;;;;;;7.94;100.00;96674.66;5071113;28;20206;-54
2023/12/14 11:18:22;;;;;;;2.17;1.97;;;;;;;7.94;100.00;96669.41;5070979;28;20209;-54
2023/12/14 11:20:49;;;;;;;1.80;1.70;;;;;;;7.93;100.00;96673.00;5071218;28;20269;-55
2023/12/14 11:23:19;;;;;;;2.27;1.93;;;;;;;7.95;100.00;96678.97;5073509;28;20530;-54
2023/12/14 11:25:48;;;;;;;2.23;2.03;;;;;;;7.92;100.00;96676.59;5074023;28;20283;-56
2023/12/14 11:28:17;;;;;;;2.07;1.97;;;;;;;7.88;100.00;96680.44;5075336;28;20332;-55
2023/12/14 11:30:45;;;;;;;1.90;1.80;;;;;;;7.85;100.00;96678.06;5074347;28;20624;-55
2023/12/14 11:33:12;;;;;;;2.40;2.20;;;;;;;7.85;100.00;96675.44;5072151;28;20199;-54
2023/12/14 11:35:39;;;;;;;2.83;2.47;;;;;;;7.88;100.00;96683.06;5073261;28;20208;-54